Time;durP1;ratioP1;P1;durP2;ratioP2;P2;SDS_P1;SDS_P2;PMS_P1;PMS_P2;Temp;Humidity;BMP_temperature;BMP_pressure;BME280_temperature;BME280_humidity;BME280_pressure;Samples;Min_cycle;Max_cycle;Signal;HPM_P1;HPM_P2
2023/08/19 00:00:01;;;;;;;7.57;4.10;;;;;;;;;;5064001;28;20599;-83
2023/08/19 00:02:27;;;;;;;8.18;4.53;;;;;;;;;;5046540;28;20037;-81
2023/08/19 00:04:52;;;;;;;4.13;3.70;;;;;;;;;;5061723;28;20115;-81
2023/08/19 00:07:17;;;;;;;10.82;4.40;;;;;;;;;;5045731;28;20044;-84
2023/08/19 00:09:42;;;;;;;13.68;4.70;;;;;;;;;;5064317;28;20029;-82
2023/08/19 00:12:08;;;;;;;7.85;4.13;;;;;;;;;;5062510;28;20025;-81
2023/08/19 00:14:34;;;;;;;5.55;3.95;;;;;;;;;;5063026;28;20332;-83
2023/08/19 00:17:00;;;;;;;12.10;4.70;;;;;;;;;;5062547;28;20045;-79
2023/08/19 00:19:26;;;;;;;6.68;3.55;;;;;;;;;;5045330;28;20132;-82
2023/08/19 00:21:51;;;;;;;5.20;3.58;;;;;;;;;;5062840;28;20056;-80
2023/08/19 00:24:16;;;;;;;5.80;4.00;;;;;;;;;;5062907;28;20499;-81
2023/08/19 00:26:42;;;;;;;7.15;4.03;;;;;;;;;;5063602;28;20040;-80
2023/08/19 00:29:07;;;;;;;10.15;4.60;;;;;;;;;;5063163;28;20033;-81
2023/08/19 00:31:32;;;;;;;12.40;4.22;;;;;;;;;;5045784;28;20044;-82
2023/08/19 00:33:58;;;;;;;5.63;3.78;;;;;;;;;;5061694;28;20024;-80
2023/08/19 00:36:23;;;;;;;11.07;4.05;;;;;;;;;;5062659;28;20037;-83
2023/08/19 00:38:51;;;;;;;9.73;4.03;;;;;;;;;;5063633;28;20076;-83
2023/08/19 00:41:17;;;;;;;5.60;3.95;;;;;;;;;;5045608;28;20033;-83
2023/08/19 00:43:42;;;;;;;11.70;4.47;;;;;;;;;;5062967;28;20057;-83
2023/08/19 00:46:08;;;;;;;6.72;4.18;;;;;;;;;;5061674;28;20056;-82
2023/08/19 00:48:33;;;;;;;10.25;4.60;;;;;;;;;;5062419;28;20041;-82
2023/08/19 00:50:59;;;;;;;6.78;4.07;;;;;;;;;;5064200;28;20060;-82
2023/08/19 00:53:25;;;;;;;10.25;4.20;;;;;;;;;;5061861;28;20041;-83
2023/08/19 00:55:51;;;;;;;7.75;4.10;;;;;;;;;;5066610;28;20059;-83
2023/08/19 00:58:18;;;;;;;11.70;4.32;;;;;;;;;;5064861;28;20029;-81
2023/08/19 01:00:44;;;;;;;7.35;4.28;;;;;;;;;;5067903;28;20049;-82
2023/08/19 01:03:10;;;;;;;6.72;4.45;;;;;;;;;;5066176;28;20023;-81
2023/08/19 01:05:54;;;;;;;11.35;4.32;;;;;;;;;;5067226;28;20127;-82
2023/08/19 01:08:26;;;;;;;10.40;4.03;;;;;;;;;;5045653;28;20041;-81
2023/08/19 01:11:04;;;;;;;8.75;4.00;;;;;;;;;;5047888;28;20043;-83
2023/08/19 01:13:44;;;;;;;9.07;4.15;;;;;;;;;;5043995;28;20727;-82
2023/08/19 01:16:24;;;;;;;5.65;4.25;;;;;;;;;;5066663;28;20060;-81
2023/08/19 01:18:50;;;;;;;8.35;4.32;;;;;;;;;;5065595;28;20032;-82
2023/08/19 01:21:16;;;;;;;9.90;4.75;;;;;;;;;;5066286;28;20009;-83
2023/08/19 01:23:47;;;;;;;9.63;4.80;;;;;;;;;;5066211;28;20036;-81
2023/08/19 01:26:13;;;;;;;11.02;4.60;;;;;;;;;;5062191;28;20037;-82
2023/08/19 01:28:38;;;;;;;12.90;4.70;;;;;;;;;;5046264;28;20051;-82
2023/08/19 01:31:03;;;;;;;8.95;4.47;;;;;;;;;;5066510;28;20434;-80
2023/08/19 01:33:29;;;;;;;8.70;4.35;;;;;;;;;;5065637;28;20067;-81
2023/08/19 01:36:17;;;;;;;19.15;4.85;;;;;;;;;;5048648;28;20035;-82
2023/08/19 01:38:50;;;;;;;7.75;4.50;;;;;;;;;;5065118;28;20033;-79
2023/08/19 01:41:17;;;;;;;9.27;4.53;;;;;;;;;;5062456;28;20068;-80
2023/08/19 01:43:44;;;;;;;7.82;3.97;;;;;;;;;;5062472;28;20041;-83
2023/08/19 01:46:10;;;;;;;7.13;3.85;;;;;;;;;;5063966;28;20052;-83
2023/08/19 01:48:35;;;;;;;10.95;3.83;;;;;;;;;;5060616;28;20521;-79
2023/08/19 01:51:00;;;;;;;6.68;3.13;;;;;;;;;;5062373;28;20053;-79
2023/08/19 01:53:26;;;;;;;8.43;3.80;;;;;;;;;;5062315;28;20017;-80
2023/08/19 01:55:51;;;;;;;4.47;3.80;;;;;;;;;;5061179;28;20400;-81
2023/08/19 01:58:16;;;;;;;6.75;3.75;;;;;;;;;;5061950;28;20029;-81
2023/08/19 02:00:41;;;;;;;8.85;4.20;;;;;;;;;;5061582;28;20063;-80
2023/08/19 02:03:07;;;;;;;6.47;3.38;;;;;;;;;;5062288;28;20013;-81
2023/08/19 02:05:32;;;;;;;4.53;3.38;;;;;;;;;;5063361;28;20016;-80
2023/08/19 02:07:58;;;;;;;10.10;3.92;;;;;;;;;;5061277;28;20056;-78
2023/08/19 02:10:23;;;;;;;10.90;4.45;;;;;;;;;;5060460;28;20029;-81
2023/08/19 02:12:48;;;;;;;10.48;5.28;;;;;;;;;;5061373;28;20158;-80
2023/08/19 02:15:14;;;;;;;12.50;5.30;;;;;;;;;;5060186;28;20021;-80
2023/08/19 02:17:39;;;;;;;10.70;4.72;;;;;;;;;;5042831;28;20134;-80
2023/08/19 02:20:05;;;;;;;7.68;4.22;;;;;;;;;;5060402;28;20056;-79
2023/08/19 02:22:30;;;;;;;8.38;4.05;;;;;;;;;;5062060;28;20025;-79
2023/08/19 02:24:56;;;;;;;7.10;3.40;;;;;;;;;;5062476;28;20056;-80
2023/08/19 02:27:21;;;;;;;5.88;3.40;;;;;;;;;;5043692;28;20045;-80
2023/08/19 02:29:47;;;;;;;5.50;3.30;;;;;;;;;;5042807;28;20047;-79
2023/08/19 02:32:12;;;;;;;6.85;3.72;;;;;;;;;;5042026;28;20254;-79
2023/08/19 02:34:37;;;;;;;8.70;3.50;;;;;;;;;;5061009;28;20041;-81
2023/08/19 02:37:03;;;;;;;7.63;4.47;;;;;;;;;;5043671;28;20612;-80
2023/08/19 02:39:28;;;;;;;8.32;4.57;;;;;;;;;;5061844;28;20032;-80
2023/08/19 02:41:53;;;;;;;8.48;4.60;;;;;;;;;;5046855;28;20481;-78
2023/08/19 02:44:19;;;;;;;10.25;4.60;;;;;;;;;;5062151;28;20519;-80
2023/08/19 02:46:44;;;;;;;7.43;4.35;;;;;;;;;;5061866;28;20029;-80
2023/08/19 02:49:09;;;;;;;9.23;4.57;;;;;;;;;;5061881;28;20061;-80
2023/08/19 02:51:37;;;;;;;7.93;4.82;;;;;;;;;;5042692;28;20097;-81
2023/08/19 02:54:03;;;;;;;8.68;4.65;;;;;;;;;;5061435;28;20457;-81
2023/08/19 02:56:28;;;;;;;6.25;4.55;;;;;;;;;;5058489;28;20045;-80
2023/08/19 02:58:53;;;;;;;10.05;5.28;;;;;;;;;;5060341;28;20032;-79
2023/08/19 03:01:34;;;;;;;8.15;4.55;;;;;;;;;;5061113;28;20398;-80
2023/08/19 03:04:00;;;;;;;8.57;4.38;;;;;;;;;;5041604;28;20033;-79
2023/08/19 03:06:25;;;;;;;6.07;4.03;;;;;;;;;;5058778;28;20116;-79
2023/08/19 03:08:51;;;;;;;8.23;4.82;;;;;;;;;;5060383;28;20055;-79
2023/08/19 03:11:16;;;;;;;6.65;4.00;;;;;;;;;;5059123;28;20044;-80
2023/08/19 03:13:41;;;;;;;12.50;4.80;;;;;;;;;;5043969;28;20083;-79
2023/08/19 03:16:06;;;;;;;6.72;4.10;;;;;;;;;;5060984;28;20037;-82
2023/08/19 03:18:32;;;;;;;6.80;4.22;;;;;;;;;;5041800;28;20025;-80
2023/08/19 03:20:58;;;;;;;11.73;4.30;;;;;;;;;;5060935;28;20036;-81
2023/08/19 03:23:27;;;;;;;14.55;4.15;;;;;;;;;;5058240;28;20067;-81
2023/08/19 03:25:54;;;;;;;10.07;3.67;;;;;;;;;;5057078;28;20128;-79
2023/08/19 03:28:19;;;;;;;14.18;4.40;;;;;;;;;;5059835;28;20041;-81
2023/08/19 03:30:45;;;;;;;9.18;4.38;;;;;;;;;;5061002;28;20033;-79
2023/08/19 03:33:10;;;;;;;10.38;4.03;;;;;;;;;;5060944;28;20111;-81
2023/08/19 03:35:35;;;;;;;10.18;4.28;;;;;;;;;;5059810;28;20033;-80
2023/08/19 03:38:02;;;;;;;10.07;3.47;;;;;;;;;;5059224;28;20033;-80
2023/08/19 03:40:27;;;;;;;7.63;3.60;;;;;;;;;;5060898;28;20037;-81
2023/08/19 03:42:53;;;;;;;8.45;3.75;;;;;;;;;;5058936;28;20074;-80
2023/08/19 03:45:18;;;;;;;13.57;4.00;;;;;;;;;;5057055;28;20017;-78
2023/08/19 03:47:43;;;;;;;7.57;4.18;;;;;;;;;;5043586;28;20024;-79
2023/08/19 03:50:09;;;;;;;12.32;4.60;;;;;;;;;;5043062;28;20033;-81
2023/08/19 03:52:34;;;;;;;6.82;4.03;;;;;;;;;;5059934;28;20036;-80
2023/08/19 03:54:59;;;;;;;5.90;3.85;;;;;;;;;;5060087;28;20502;-79
2023/08/19 03:57:25;;;;;;;7.90;3.78;;;;;;;;;;5056138;28;20025;-81
2023/08/19 03:59:50;;;;;;;9.15;4.20;;;;;;;;;;5043633;28;21434;-81
2023/08/19 04:02:16;;;;;;;9.85;4.43;;;;;;;;;;5042514;28;20025;-80
2023/08/19 04:04:59;;;;;;;10.13;4.10;;;;;;;;;;5061032;28;20398;-81
2023/08/19 04:07:24;;;;;;;7.53;4.20;;;;;;;;;;5063161;28;20041;-80
2023/08/19 04:09:50;;;;;;;10.02;4.53;;;;;;;;;;5064557;28;20035;-82
2023/08/19 04:12:15;;;;;;;7.85;4.60;;;;;;;;;;5045197;28;20021;-81
2023/08/19 04:14:42;;;;;;;12.07;4.15;;;;;;;;;;5063806;28;20542;-80
2023/08/19 04:17:07;;;;;;;6.55;4.55;;;;;;;;;;5063515;28;20043;-80
2023/08/19 04:19:33;;;;;;;6.07;3.80;;;;;;;;;;5063971;28;20048;-80
2023/08/19 04:21:58;;;;;;;11.68;4.00;;;;;;;;;;5064196;28;20041;-81
2023/08/19 04:24:23;;;;;;;10.30;4.03;;;;;;;;;;5029460;28;20502;-81
2023/08/19 04:26:49;;;;;;;12.88;4.18;;;;;;;;;;5043015;28;20025;-79
2023/08/19 04:29:14;;;;;;;9.15;4.53;;;;;;;;;;5064072;28;20036;-81
2023/08/19 04:31:39;;;;;;;9.10;4.72;;;;;;;;;;5048424;28;20036;-81
2023/08/19 04:34:04;;;;;;;8.45;3.92;;;;;;;;;;5048584;28;20025;-80
2023/08/19 04:36:30;;;;;;;11.55;4.50;;;;;;;;;;5056102;23;20044;-81
2023/08/19 04:38:56;;;;;;;6.32;3.95;;;;;;;;;;5042330;28;20416;-81
2023/08/19 04:41:21;;;;;;;7.80;3.90;;;;;;;;;;5058910;28;20403;-82
2023/08/19 04:43:47;;;;;;;6.85;4.07;;;;;;;;;;5041702;28;20037;-81
2023/08/19 04:46:13;;;;;;;8.45;3.80;;;;;;;;;;5059570;28;20411;-81
2023/08/19 04:48:38;;;;;;;8.20;3.97;;;;;;;;;;5054379;28;20112;-81
2023/08/19 04:51:04;;;;;;;8.63;3.40;;;;;;;;;;5056340;28;20497;-80
2023/08/19 04:53:29;;;;;;;6.72;3.60;;;;;;;;;;5055501;28;20375;-79
2023/08/19 04:56:03;;;;;;;7.78;3.60;;;;;;;;;;5036681;28;20041;-80
2023/08/19 04:58:29;;;;;;;7.15;3.50;;;;;;;;;;5049269;28;20102;-82
2023/08/19 05:00:54;;;;;;;7.47;3.58;;;;;;;;;;5052855;28;20115;-80
2023/08/19 05:03:19;;;;;;;9.05;3.28;;;;;;;;;;5032875;28;20056;-81
2023/08/19 05:05:45;;;;;;;7.85;3.83;;;;;;;;;;5032321;28;21000;-80
2023/08/19 05:08:10;;;;;;;5.13;3.33;;;;;;;;;;5049023;28;20040;-80
2023/08/19 05:10:36;;;;;;;11.57;3.30;;;;;;;;;;5043588;28;20354;-80
2023/08/19 05:13:02;;;;;;;9.70;4.07;;;;;;;;;;5039195;28;20068;-80
2023/08/19 05:15:27;;;;;;;11.40;3.60;;;;;;;;;;5036554;28;20066;-81
2023/08/19 05:17:52;;;;;;;15.43;3.78;;;;;;;;;;5048493;28;20024;-80
2023/08/19 05:20:18;;;;;;;8.40;3.42;;;;;;;;;;5030160;28;20025;-81
2023/08/19 05:22:44;;;;;;;12.32;3.53;;;;;;;;;;5036942;28;20051;-80
2023/08/19 05:25:09;;;;;;;12.55;4.03;;;;;;;;;;5038417;28;20121;-80
2023/08/19 05:27:35;;;;;;;16.20;3.22;;;;;;;;;;5048712;28;20041;-80
2023/08/19 05:30:00;;;;;;;8.70;3.53;;;;;;;;;;5054334;28;20029;-80
2023/08/19 05:32:26;;;;;;;7.40;3.17;;;;;;;;;;5048263;28;20094;-81
2023/08/19 05:34:51;;;;;;;5.75;2.97;;;;;;;;;;5051360;28;20051;-81
2023/08/19 05:37:17;;;;;;;10.27;3.13;;;;;;;;;;5034614;28;20045;-81
2023/08/19 05:39:42;;;;;;;8.05;2.90;;;;;;;;;;5033745;28;20101;-82
2023/08/19 05:42:07;;;;;;;6.57;3.00;;;;;;;;;;5048034;28;20059;-80
2023/08/19 05:44:33;;;;;;;5.38;2.83;;;;;;;;;;5040315;28;20553;-81
2023/08/19 05:46:58;;;;;;;10.30;3.70;;;;;;;;;;5045205;28;20082;-81
2023/08/19 05:49:23;;;;;;;7.70;2.42;;;;;;;;;;5039095;28;20036;-81
2023/08/19 05:51:48;;;;;;;5.38;2.50;;;;;;;;;;5033928;28;20083;-81
2023/08/19 05:54:14;;;;;;;3.17;2.40;;;;;;;;;;5049191;28;20018;-81
2023/08/19 05:56:39;;;;;;;6.53;2.72;;;;;;;;;;5045405;28;20077;-82
2023/08/19 05:59:04;;;;;;;4.85;2.67;;;;;;;;;;5033866;28;20060;-81
2023/08/19 06:01:30;;;;;;;7.93;2.70;;;;;;;;;;5029833;28;20084;-82
2023/08/19 06:03:55;;;;;;;7.25;2.70;;;;;;;;;;5030989;28;20250;-79
2023/08/19 06:06:20;;;;;;;6.55;2.40;;;;;;;;;;5047909;28;20024;-78
2023/08/19 06:08:46;;;;;;;5.88;2.55;;;;;;;;;;5021682;28;20029;-79
2023/08/19 06:11:11;;;;;;;6.57;2.97;;;;;;;;;;5036661;28;20120;-82
2023/08/19 06:13:37;;;;;;;4.50;2.78;;;;;;;;;;5048089;28;20109;-82
2023/08/19 06:16:04;;;;;;;6.68;2.40;;;;;;;;;;5048355;28;20044;-79
2023/08/19 06:18:32;;;;;;;6.25;3.15;;;;;;;;;;5042826;28;20037;-81
2023/08/19 06:20:58;;;;;;;7.97;3.20;;;;;;;;;;5035509;28;20099;-81
2023/08/19 06:23:24;;;;;;;6.18;3.00;;;;;;;;;;5047248;28;20053;-82
2023/08/19 06:25:52;;;;;;;6.72;2.80;;;;;;;;;;5031677;28;20104;-81
2023/08/19 06:28:18;;;;;;;4.20;2.22;;;;;;;;;;5046143;28;20445;-81
2023/08/19 06:30:44;;;;;;;4.40;2.72;;;;;;;;;;5045042;28;20037;-82
2023/08/19 06:33:09;;;;;;;8.95;2.92;;;;;;;;;;5026808;28;20021;-81
2023/08/19 06:35:36;;;;;;;6.40;2.40;;;;;;;;;;5032162;28;20032;-79
2023/08/19 06:38:18;;;;;;;8.30;2.92;;;;;;;;;;5044893;28;20048;-80
2023/08/19 06:40:55;;;;;;;6.43;2.88;;;;;;;;;;5040669;28;20029;-79
2023/08/19 06:43:21;;;;;;;4.55;2.70;;;;;;;;;;5026783;28;20049;-79
2023/08/19 06:45:48;;;;;;;2.95;2.20;;;;;;;;;;5048331;28;20061;-77
2023/08/19 06:48:15;;;;;;;5.57;2.80;;;;;;;;;;5039811;28;20033;-77
2023/08/19 06:50:40;;;;;;;7.95;2.58;;;;;;;;;;5042292;28;20075;-78
2023/08/19 06:53:09;;;;;;;6.45;2.58;;;;;;;;;;5038936;28;20588;-77
2023/08/19 06:55:36;;;;;;;11.85;2.70;;;;;;;;;;5036279;28;20684;-77
2023/08/19 06:58:04;;;;;;;5.32;2.65;;;;;;;;;;5036883;28;20030;-78
2023/08/19 07:00:33;;;;;;;6.78;2.80;;;;;;;;;;5038011;28;20045;-78
2023/08/19 07:02:58;;;;;;;6.80;2.42;;;;;;;;;;5039919;28;20033;-78
2023/08/19 07:05:26;;;;;;;3.00;2.60;;;;;;;;;;5037328;28;20033;-78
2023/08/19 07:07:54;;;;;;;5.38;2.70;;;;;;;;;;5019590;28;20029;-78
2023/08/19 07:10:21;;;;;;;8.48;2.97;;;;;;;;;;5037492;28;20660;-78
2023/08/19 07:12:46;;;;;;;17.13;2.83;;;;;;;;;;5020604;28;20045;-78
2023/08/19 07:15:13;;;;;;;7.22;2.65;;;;;;;;;;5040302;28;20446;-78
2023/08/19 07:17:46;;;;;;;6.25;2.50;;;;;;;;;;5040766;28;20024;-80
2023/08/19 07:20:16;;;;;;;8.00;2.80;;;;;;;;;;5038566;28;20048;-78
2023/08/19 07:22:47;;;;;;;4.65;2.80;;;;;;;;;;5042648;28;20057;-78
2023/08/19 07:25:13;;;;;;;10.52;3.05;;;;;;;;;;5036923;28;20037;-78
2023/08/19 07:27:39;;;;;;;8.60;2.88;;;;;;;;;;5041255;28;20120;-78
2023/08/19 07:30:04;;;;;;;10.18;3.20;;;;;;;;;;5027382;28;20024;-78
2023/08/19 07:32:33;;;;;;;4.38;2.63;;;;;;;;;;5044463;28;20083;-78
2023/08/19 07:34:59;;;;;;;5.53;2.92;;;;;;;;;;5027929;28;20033;-78
2023/08/19 07:37:25;;;;;;;3.88;2.40;;;;;;;;;;5043823;28;20495;-78
2023/08/19 07:39:53;;;;;;;7.07;2.40;;;;;;;;;;5044852;28;20029;-77
2023/08/19 07:42:19;;;;;;;5.68;2.47;;;;;;;;;;5044729;28;20025;-77
2023/08/19 07:44:44;;;;;;;7.25;2.58;;;;;;;;;;5038050;28;20042;-77
2023/08/19 07:47:09;;;;;;;6.25;2.72;;;;;;;;;;5045852;28;20037;-77
2023/08/19 07:49:34;;;;;;;12.50;2.85;;;;;;;;;;5039533;28;20045;-77
2023/08/19 07:52:00;;;;;;;5.70;2.50;;;;;;;;;;5036085;28;20428;-77
2023/08/19 07:54:25;;;;;;;10.07;3.05;;;;;;;;;;5042147;28;20120;-77
2023/08/19 07:56:57;;;;;;;5.68;3.00;;;;;;;;;;5038805;28;20040;-77
2023/08/19 07:59:22;;;;;;;3.53;2.63;;;;;;;;;;5036247;28;20044;-77
2023/08/19 08:01:48;;;;;;;10.40;2.90;;;;;;;;;;5020258;28;20037;-76
2023/08/19 08:04:13;;;;;;;10.98;3.22;;;;;;;;;;5023286;28;20036;-77
2023/08/19 08:06:38;;;;;;;11.85;3.25;;;;;;;;;;5044073;28;20138;-77
2023/08/19 08:09:04;;;;;;;9.13;3.17;;;;;;;;;;5039693;28;20143;-77
2023/08/19 08:11:29;;;;;;;5.05;2.70;;;;;;;;;;5022937;28;20021;-77
2023/08/19 08:13:54;;;;;;;7.07;2.47;;;;;;;;;;5040225;28;20216;-79
2023/08/19 08:16:20;;;;;;;7.63;2.78;;;;;;;;;;5025201;28;20499;-76
2023/08/19 08:18:45;;;;;;;8.00;2.90;;;;;;;;;;5022718;28;20041;-77
2023/08/19 08:21:10;;;;;;;7.90;2.45;;;;;;;;;;5041039;28;20048;-77
2023/08/19 08:23:35;;;;;;;10.98;2.85;;;;;;;;;;5041170;28;20363;-76
2023/08/19 08:26:01;;;;;;;7.13;2.40;;;;;;;;;;5021442;28;20670;-77
2023/08/19 08:28:27;;;;;;;9.07;2.85;;;;;;;;;;5044246;28;20064;-77
2023/08/19 08:30:52;;;;;;;6.75;3.20;;;;;;;;;;5039877;28;20453;-77
2023/08/19 08:33:19;;;;;;;6.82;2.47;;;;;;;;;;5038855;28;20082;-77
2023/08/19 08:35:44;;;;;;;8.57;3.03;;;;;;;;;;5044985;28;20094;-77
2023/08/19 08:38:10;;;;;;;5.20;2.60;;;;;;;;;;5039339;28;20029;-76
2023/08/19 08:40:35;;;;;;;7.32;2.80;;;;;;;;;;5042995;28;20036;-76
2023/08/19 08:43:02;;;;;;;8.93;2.95;;;;;;;;;;5041654;28;20568;-76
2023/08/19 08:45:31;;;;;;;10.93;3.08;;;;;;;;;;5040713;28;20033;-77
2023/08/19 08:47:56;;;;;;;10.07;2.70;;;;;;;;;;5038654;28;20493;-76
2023/08/19 08:50:22;;;;;;;3.90;2.53;;;;;;;;;;5040342;28;20038;-77
2023/08/19 08:52:48;;;;;;;19.45;3.80;;;;;;;;;;5035837;28;20137;-77
2023/08/19 08:55:13;;;;;;;8.10;3.00;;;;;;;;;;5041319;28;20041;-77
2023/08/19 08:57:39;;;;;;;10.80;2.80;;;;;;;;;;5026483;28;20048;-77
2023/08/19 09:00:07;;;;;;;7.60;2.85;;;;;;;;;;5048684;28;20032;-77
2023/08/19 09:02:33;;;;;;;11.25;2.88;;;;;;;;;;5039395;28;20025;-77
2023/08/19 09:04:59;;;;;;;11.38;2.85;;;;;;;;;;5038491;28;20103;-77
2023/08/19 09:07:31;;;;;;;9.07;2.92;;;;;;;;;;5035697;28;20047;-77
2023/08/19 09:09:58;;;;;;;4.55;2.63;;;;;;;;;;5028903;28;20585;-77
2023/08/19 09:12:26;;;;;;;6.40;2.92;;;;;;;;;;5039801;28;20048;-77
2023/08/19 09:15:02;;;;;;;6.20;2.72;;;;;;;;;;5039088;28;20515;-78
2023/08/19 09:17:27;;;;;;;12.30;3.67;;;;;;;;;;5021926;28;20045;-76
2023/08/19 09:19:55;;;;;;;6.10;2.72;;;;;;;;;;5035249;28;20590;-77
2023/08/19 09:22:22;;;;;;;5.75;3.00;;;;;;;;;;5037449;28;20106;-77
2023/08/19 09:24:48;;;;;;;4.20;2.80;;;;;;;;;;5042226;28;20160;-77
2023/08/19 09:27:23;;;;;;;6.22;2.65;;;;;;;;;;5039306;28;20025;-77
2023/08/19 09:29:50;;;;;;;9.95;2.90;;;;;;;;;;5044170;28;20102;-75
2023/08/19 09:32:15;;;;;;;7.75;2.85;;;;;;;;;;5037925;28;20065;-77
2023/08/19 09:34:40;;;;;;;6.38;2.63;;;;;;;;;;5041910;28;20045;-77
2023/08/19 09:37:08;;;;;;;8.70;3.17;;;;;;;;;;5039665;28;21152;-77
2023/08/19 09:39:33;;;;;;;8.95;3.10;;;;;;;;;;5042544;28;20052;-77
2023/08/19 09:41:59;;;;;;;8.68;2.50;;;;;;;;;;5039887;28;20432;-77
2023/08/19 09:44:28;;;;;;;6.85;2.80;;;;;;;;;;5038228;28;20034;-77
2023/08/19 09:47:00;;;;;;;11.13;3.60;;;;;;;;;;5038894;28;20045;-77
2023/08/19 09:49:26;;;;;;;5.07;3.05;;;;;;;;;;5037209;28;20581;-77
2023/08/19 09:51:56;;;;;;;7.72;2.80;;;;;;;;;;5040207;28;20029;-77
2023/08/19 09:54:22;;;;;;;9.50;2.70;;;;;;;;;;5020727;28;20373;-77
2023/08/19 09:56:55;;;;;;;7.28;2.67;;;;;;;;;;5021454;28;20028;-77
2023/08/19 09:59:25;;;;;;;4.55;2.50;;;;;;;;;;5039529;28;20044;-77
2023/08/19 10:01:52;;;;;;;5.07;2.35;;;;;;;;;;5033762;28;20092;-77
2023/08/19 10:04:20;;;;;;;8.93;2.30;;;;;;;;;;5035267;28;20090;-77
2023/08/19 10:06:48;;;;;;;12.93;2.90;;;;;;;;;;5044169;28;20111;-77
2023/08/19 10:09:17;;;;;;;7.85;2.30;;;;;;;;;;5038551;28;20450;-77
2023/08/19 10:11:43;;;;;;;13.45;2.65;;;;;;;;;;5041759;28;20360;-77
2023/08/19 10:14:10;;;;;;;11.82;2.63;;;;;;;;;;5041380;28;20090;-77
2023/08/19 10:16:41;;;;;;;12.75;2.70;;;;;;;;;;5038503;28;20033;-77
2023/08/19 10:19:09;;;;;;;10.52;2.42;;;;;;;;;;5026883;28;20526;-77
2023/08/19 10:21:37;;;;;;;6.32;2.63;;;;;;;;;;5037002;28;20038;-77
2023/08/19 10:24:04;;;;;;;8.45;2.95;;;;;;;;;;5044246;28;20138;-77
2023/08/19 10:26:29;;;;;;;6.22;2.83;;;;;;;;;;5019049;28;20052;-77
2023/08/19 10:29:07;;;;;;;4.43;2.40;;;;;;;;;;5037073;28;20033;-77
2023/08/19 10:31:33;;;;;;;10.07;2.63;;;;;;;;;;5037191;28;20048;-77
2023/08/19 10:33:58;;;;;;;11.30;2.38;;;;;;;;;;5038401;28;20045;-77
2023/08/19 10:36:29;;;;;;;17.08;2.80;;;;;;;;;;5037173;28;20116;-77
2023/08/19 10:39:02;;;;;;;8.50;2.45;;;;;;;;;;5040088;28;20033;-77
2023/08/19 10:41:29;;;;;;;;;;;;;;;;;;5039368;28;20037;-76
2023/08/19 10:44:01;;;;;;;6.22;2.20;;;;;;;;;;5028801;28;19917;-76
2023/08/19 10:46:33;;;;;;;8.63;2.58;;;;;;;;;;5039157;28;20558;-77
2023/08/19 10:48:58;;;;;;;7.63;2.33;;;;;;;;;;5038299;28;20068;-77
2023/08/19 10:51:53;;;;;;;7.63;3.03;;;;;;;;;;5040914;28;20072;-77
2023/08/19 10:54:38;;;;;;;9.70;2.85;;;;;;;;;;5021142;28;20383;-77
2023/08/19 10:57:15;;;;;;;9.48;2.83;;;;;;;;;;5039296;28;20047;-77
2023/08/19 10:59:42;;;;;;;7.40;2.17;;;;;;;;;;5038797;28;20071;-77
2023/08/19 11:02:09;;;;;;;12.18;2.80;;;;;;;;;;5039152;28;20036;-77
2023/08/19 11:04:37;;;;;;;8.85;2.53;;;;;;;;;;5040933;28;20064;-77
2023/08/19 11:07:05;;;;;;;12.20;3.05;;;;;;;;;;5038148;28;20041;-77
2023/08/19 11:09:30;;;;;;;13.32;2.88;;;;;;;;;;5028908;28;20413;-77
2023/08/19 11:11:57;;;;;;;10.48;2.75;;;;;;;;;;5025669;28;20575;-77
2023/08/19 11:14:23;;;;;;;10.15;2.75;;;;;;;;;;5038493;28;20529;-77
2023/08/19 11:16:53;;;;;;;12.70;2.83;;;;;;;;;;5039415;28;20144;-77
2023/08/19 11:19:19;;;;;;;13.75;3.10;;;;;;;;;;5037038;28;20115;-77
2023/08/19 11:21:46;;;;;;;8.88;2.72;;;;;;;;;;5040990;28;20442;-77
2023/08/19 11:24:11;;;;;;;13.88;3.22;;;;;;;;;;5041105;28;20104;-77
2023/08/19 11:26:44;;;;;;;8.00;2.80;;;;;;;;;;5042769;28;20183;-77
2023/08/19 11:29:15;;;;;;;12.52;3.00;;;;;;;;;;5038040;28;20486;-77
2023/08/19 11:31:42;;;;;;;9.63;2.72;;;;;;;;;;5036886;28;20084;-77
2023/08/19 11:34:12;;;;;;;8.73;2.63;;;;;;;;;;5039585;28;20126;-77
2023/08/19 11:36:39;;;;;;;10.00;2.88;;;;;;;;;;5020109;28;20079;-77
2023/08/19 11:39:05;;;;;;;7.63;2.80;;;;;;;;;;5032456;28;20037;-77
2023/08/19 11:41:32;;;;;;;16.33;3.58;;;;;;;;;;5038812;28;20094;-77
2023/08/19 11:43:58;;;;;;;4.47;2.50;;;;;;;;;;5039388;28;20047;-77
2023/08/19 11:46:30;;;;;;;7.68;2.50;;;;;;;;;;5037948;28;20040;-77
2023/08/19 11:48:57;;;;;;;7.80;2.72;;;;;;;;;;5041555;28;20037;-77
2023/08/19 11:51:25;;;;;;;13.65;2.65;;;;;;;;;;5039541;28;20254;-77
2023/08/19 11:53:53;;;;;;;14.15;2.67;;;;;;;;;;5034695;28;20021;-77
2023/08/19 11:56:18;;;;;;;13.40;2.35;;;;;;;;;;5038722;28;20077;-77
2023/08/19 11:58:51;;;;;;;8.68;2.17;;;;;;;;;;5035014;28;20040;-77
2023/08/19 12:01:18;;;;;;;7.55;2.47;;;;;;;;;;5036048;28;20033;-76
2023/08/19 12:03:45;;;;;;;8.90;2.85;;;;;;;;;;5037246;28;20037;-77
2023/08/19 12:06:11;;;;;;;10.32;2.75;;;;;;;;;;5023414;28;20059;-77
2023/08/19 12:08:39;;;;;;;7.85;2.70;;;;;;;;;;5040348;28;20388;-77
2023/08/19 12:11:04;;;;;;;13.68;2.83;;;;;;;;;;5038638;28;21303;-77
2023/08/19 12:13:29;;;;;;;7.82;2.75;;;;;;;;;;5036127;28;20037;-77
2023/08/19 12:15:55;;;;;;;6.30;2.22;;;;;;;;;;5036900;28;20025;-77
2023/08/19 12:18:21;;;;;;;9.98;2.63;;;;;;;;;;5035559;28;20021;-77
2023/08/19 12:20:48;;;;;;;11.20;2.75;;;;;;;;;;5039093;28;20078;-77
2023/08/19 12:23:13;;;;;;;18.70;2.97;;;;;;;;;;5034149;28;20037;-77
2023/08/19 12:25:48;;;;;;;7.80;2.75;;;;;;;;;;5030791;28;20061;-77
2023/08/19 12:28:15;;;;;;;11.02;3.00;;;;;;;;;;5039660;28;20025;-77
2023/08/19 12:30:41;;;;;;;5.10;2.67;;;;;;;;;;5038518;28;20403;-77
2023/08/19 12:33:06;;;;;;;8.32;2.95;;;;;;;;;;5039074;28;20021;-77
2023/08/19 12:35:31;;;;;;;5.53;2.80;;;;;;;;;;5002795;28;1042495;-77
2023/08/19 12:37:56;;;;;;;16.10;3.28;;;;;;;;;;5019760;28;20514;-75
2023/08/19 12:40:22;;;;;;;8.43;2.75;;;;;;;;;;5027830;28;20060;-77
2023/08/19 12:42:47;;;;;;;6.57;2.55;;;;;;;;;;5041911;28;20512;-77
2023/08/19 12:45:12;;;;;;;8.40;2.72;;;;;;;;;;5039883;28;20498;-77
2023/08/19 12:47:38;;;;;;;9.02;2.90;;;;;;;;;;5044658;28;20021;-77
2023/08/19 12:50:04;;;;;;;15.10;3.35;;;;;;;;;;5042016;28;20034;-77
2023/08/19 12:52:30;;;;;;;8.98;3.03;;;;;;;;;;5038671;28;20065;-77
2023/08/19 12:54:55;;;;;;;10.60;3.20;;;;;;;;;;5044387;28;20056;-76
2023/08/19 12:57:21;;;;;;;12.05;3.10;;;;;;;;;;5026279;28;20029;-78
2023/08/19 12:59:46;;;;;;;9.18;2.85;;;;;;;;;;5044033;28;20028;-76
2023/08/19 13:02:12;;;;;;;12.70;2.78;;;;;;;;;;5044631;28;20426;-76
2023/08/19 13:04:37;;;;;;;7.95;2.67;;;;;;;;;;5035582;28;20061;-76
2023/08/19 13:07:02;;;;;;;10.90;2.90;;;;;;;;;;5034980;28;20451;-76
2023/08/19 13:09:27;;;;;;;12.43;3.50;;;;;;;;;;5039603;28;20053;-76
2023/08/19 13:11:53;;;;;;;8.82;3.00;;;;;;;;;;5042388;28;20052;-76
2023/08/19 13:14:18;;;;;;;12.15;2.55;;;;;;;;;;5040552;28;20041;-76
2023/08/19 13:16:44;;;;;;;11.48;3.05;;;;;;;;;;5023389;28;20067;-76
2023/08/19 13:19:09;;;;;;;12.90;3.33;;;;;;;;;;5044623;28;20025;-76
2023/08/19 13:21:35;;;;;;;7.80;3.50;;;;;;;;;;5027351;28;20223;-77
2023/08/19 13:24:00;;;;;;;12.77;3.25;;;;;;;;;;5045505;28;20095;-76
2023/08/19 13:26:25;;;;;;;8.05;3.17;;;;;;;;;;5045408;28;20044;-76
2023/08/19 13:28:51;;;;;;;10.48;2.70;;;;;;;;;;5044844;28;20029;-76
2023/08/19 13:31:18;;;;;;;7.32;3.10;;;;;;;;;;5045669;28;20114;-76
2023/08/19 13:33:43;;;;;;;7.22;2.88;;;;;;;;;;5044007;28;20045;-76
2023/08/19 13:36:08;;;;;;;11.73;3.17;;;;;;;;;;5047436;28;20075;-77
2023/08/19 13:38:34;;;;;;;10.55;3.13;;;;;;;;;;5042214;28;20075;-77
2023/08/19 13:40:59;;;;;;;9.07;3.25;;;;;;;;;;5042933;28;21168;-77
2023/08/19 13:43:24;;;;;;;12.30;3.00;;;;;;;;;;5042919;28;20048;-77
2023/08/19 13:45:49;;;;;;;9.73;3.35;;;;;;;;;;5038327;28;20276;-77
2023/08/19 13:48:15;;;;;;;9.13;2.92;;;;;;;;;;5043389;28;20031;-77
2023/08/19 13:50:45;;;;;;;5.85;2.72;;;;;;;;;;5039463;28;20484;-77
2023/08/19 13:53:10;;;;;;;9.55;2.92;;;;;;;;;;5041477;28;20036;-77
2023/08/19 13:55:36;;;;;;;13.73;3.00;;;;;;;;;;5044769;28;20037;-77
2023/08/19 13:58:01;;;;;;;6.75;2.78;;;;;;;;;;5045528;28;20037;-77
2023/08/19 14:00:26;;;;;;;8.73;2.75;;;;;;;;;;5046718;28;20143;-77
2023/08/19 14:02:52;;;;;;;11.18;3.10;;;;;;;;;;5040176;28;20027;-77
2023/08/19 14:05:17;;;;;;;13.02;2.95;;;;;;;;;;5024416;28;20584;-77
2023/08/19 14:07:43;;;;;;;9.13;3.28;;;;;;;;;;5031452;28;20064;-77
2023/08/19 14:10:12;;;;;;;7.22;3.35;;;;;;;;;;5027595;28;20033;-77
2023/08/19 14:12:38;;;;;;;4.93;2.88;;;;;;;;;;5034251;28;20041;-77
2023/08/19 14:15:05;;;;;;;12.68;3.55;;;;;;;;;;5018952;28;20509;-77
2023/08/19 14:17:30;;;;;;;11.23;3.22;;;;;;;;;;5039052;28;20120;-77
2023/08/19 14:19:56;;;;;;;8.07;3.00;;;;;;;;;;5043445;28;20488;-77
2023/08/19 14:22:21;;;;;;;13.85;3.22;;;;;;;;;;5038666;28;20040;-76
2023/08/19 14:24:46;;;;;;;12.40;3.53;;;;;;;;;;5038967;28;20112;-77
2023/08/19 14:27:11;;;;;;;8.25;3.15;;;;;;;;;;5038092;28;20111;-76
2023/08/19 14:29:37;;;;;;;11.75;3.13;;;;;;;;;;5037152;28;20047;-76
2023/08/19 14:32:02;;;;;;;8.68;3.03;;;;;;;;;;5041211;28;20517;-76
2023/08/19 14:34:28;;;;;;;10.38;2.90;;;;;;;;;;5034375;28;20084;-76